Bodrum, Turkey
Current Conditions -  °F | °C
As of 9:20 AM on Thursday 23 Oct 2014 (Local Time) from LTFE Reporting Station
Broken Clouds Broken Clouds  
Wind Chill: 70°   Ceiling: 9000
Heat Index: 70°   Visibility: 6mi
Dew Point: 63°   Wind: 8mph
Humidity: 78%   Direction: 160°SSE
Pressure: 29.8"   Gusts: NA
Location:  37.04°N, 27.43°E
Report Text: LTFE 230620Z 16007KT 120V190 9999 FEW020CB SCT030 BKN090 21/17 Q1009 RETSRA NOSIG
Loading
Personal Weather Stations






























Interactive Weather Map
Tropical Storm Tracking
New forecast layout! Learn more

10-Day Weather Forecast

Advertisements
Track Severe Weather on mobile